Logs for Anthony Casorso, Westminster, CO, USA [DM79lt]
Paging Controls
Date UTC KHz ID Location S/P ITU Region GSQ LSB USB Sec. Fmt. Power KM Miles
2021-05-31 1000 385 CPZ 'Chaparrosa Ranch' La Pryor TX USA na DL98xv 25 1297 806
2021-05-31 1000 387 CAV Clarion IA USA na EN32cr 25 994 617
2021-05-31 1000 389 EN 'Codee' Kenosha WI USA na EN52xn 1452 902
2021-05-31 0933 360 SW 'Roadd' Warroad MN USA na EN28ju 25 1271 790
2021-05-31 0932 358 SIT Sitka AK ALS na CO26fu 2903 1803
2021-05-31 0931 402 M3 Kindersley SK CAN na DO51jm 1341 833
2021-05-31 0931 405 2K Camrose AB CAN na DO33oa 1582 983
2021-05-31 0930 298 3N Weyburn SK CAN na DN89cq 1102 685
2021-05-31 0930 334 YER Fort Severn ON CAN na EO65ex 195 2204 1369
2021-05-31 0930 397 ZSS Yellowhead (Saskatoon) SK CAN na DO62pf 25 1386 861
2021-05-31 0930 401 YPO Peawanuck ON CAN na EO74gx 125 2224 1382
2021-05-31 0900 312 UNT Naramata (Penticton) BC CAN na DN09eo 1580 982
2021-05-31 0835 371 GW Jarpik Kuujjuarapik QC CAN na FO15cg 500 2641 1641
2021-05-31 0833 338 RYN 'Ryan' Tucson AZ USA na DM42kd 400 1012 629
2021-05-31 0832 337 FF 'Hamre' Fergus Falls MN USA na EN16xf 25 1021 634
2021-05-31 0831 296 LGD La Grande OR USA na DN15ai 25 1222 759
2021-05-31 0830 335 YLD Chapleau ON CAN na EN87hs 100 1942 1207
2021-05-31 0830 366 YMW Maniwaki QC CAN na FN26ae 500 2453 1524
2021-05-31 0730 340 YY Mont Joli QC CAN na FN58un 500 3053 1897
2021-05-31 0725 378 RJ Roberval QC CAN na FN38un 500 2761 1715
2021-05-30 1042 332 XH Medicine Hat AB CAN na DO40oa 50 1221 759
2021-05-30 1041 326 MA 'Farly' Midland TX USA na DM81ux 400 905 562
2021-05-30 1040 320 YQF Red Deer AB CAN na DO32bd 50 1529 950
2021-05-30 1039 305 RO 'Topan' Roswell NM USA na DM73si 400 720 447
2021-05-30 1037 278 CEP 'Capitan' Ruidoso NM USA na DM73hl 25 705 438
2021-05-30 1030 328 5J Coronation AB CAN na DO42gb 141 1448 900
2021-05-30 1030 420 FQ 'Montz' Fairmont MN USA na EN23tp 25 981 610
2021-05-30 0943 314 VTN Valentine NE USA na DN92ru 25 505 314
2021-05-30 0942 311 9Y Pincher Creek AB CAN na DN39am 50 1287 800
2021-05-30 0940 287 ZWG 'Stoney' Medicine Rock (Winnipeg) MB CAN na EN19jx 17 1286 799
2021-05-30 0938 277 OT 'Wondd' Worthington MN USA na EN23go 25 899 559
2021-05-30 0938 368 AN 'Alamo' San Antonio TX USA na EL09ro 400 1280 795
2021-05-30 0938 372 ZPA Glass (Prince Albert) SK CAN na DO73ff 25 1492 927
2021-05-30 0937 365 SYZ Shelbyville IL USA na EM59nj 25 1384 860
2021-05-30 0936 284 QD The Pas MB CAN na DO93lx 500 1603 996
2021-05-30 0936 290 YYF Penticton BC CAN na DN09el 500 1571 976
2021-05-30 0934 300 YIV Island Lake MB CAN na EO23qu 500 1746 1085
2021-05-30 0934 302 QW North Battleford SK CAN na DO52tt 40 1467 912
2021-05-30 0933 308 ZZD Calmar (Edmonton Intl Apt) AB CAN na DO33eg 1631 1013
2021-05-30 0933 317 VC La Ronge SK CAN na DO75ic 500 1700 1056
2021-05-30 0933 351 AE 'Dudle' Albuquerque NM USA na DM65pf 530 329
2021-05-30 0933 353 IN 'Raize' International Falls MN USA na EN38il 100 1341 833
2021-05-30 0931 344 CGQ 'Powell' Corsicana TX USA na EM12sb 1156 718
2021-05-30 0931 346 YXL Sioux Lookout ON CAN na EO40bc 1000 1539 956
2021-05-30 0931 404 MOG Montague CA USA na CN81sr 25 1479 919
2021-05-30 0930 336 LF La Salle MB CAN na EN19ip 50 1251 777
2021-05-30 0927 292 ZET Devon (Edmonton Intl Apt) AB CAN na DO33di 25 1642 1020
2021-05-30 0916 329 X2 Athabasca AB CAN na DO34jr 1766 1097
2021-05-30 0906 376 YAG Fort Frances ON CAN na EN38fq 40 1343 835
2021-05-30 0905 375 DS Searcy AR USA na EM45cc 25 1279 795
2021-05-30 0900 379 DL 'Pykla' Duluth MN USA na EN36tu 1287 799
2021-05-30 0832 419 GB 'Babsy' Great Bend KS USA na EM08ng 25 559 348
2021-05-30 0831 289 YLQ La Tuque QC CAN na FN37oj 500 2707 1682
2021-05-30 0831 417 IY 'Chukk' Charles City IA USA na EN33pd 25 1091 678
2021-05-30 0830 382 YPL Pickle Lake ON CAN na EO41vk 500 1726 1072
2021-05-30 0830 413 YHD Dryden ON CAN na EN39nu 250 1468 912
2021-05-30 0815 391 DDP San Juan / Dorado / Luiz Munoz Marin Intl PR PTR ca FK68tl 2000 4390 2728
2021-05-29 1401 414 GL 'Shugr' Goodland KS USA na DM99eh 25 298 185
2021-05-29 1401 416 LB 'Panbe' North Platte NE USA na DN91rb 50 405 252
2021-05-29 1400 400 FN 'Colln' Fort Collins / Loveland CO USA na DN70mi 25 61 38
2021-05-29 1400 407 HRU Herington KS USA na EM18oq 25 721 448
2021-05-29 1400 408 JDM 'Wheatfield' Colby KS USA na DM99lm 25 344 214
2021-05-29 1357 392 FMZ 'Beklof' Fairmont NE USA na EN10fo 25 643 399
2021-05-29 1357 395 ULS Ulysses KS USA na DM97ho 402 250
2021-05-29 1356 380 GC 'Deryk' Gillette WY USA na DN74fg 25 497 309
2021-05-29 1356 383 CNP Chappell NE USA na DN81sb 25 259 161
2021-05-29 1355 359 GGF Grant NE USA na DN90du 305 190
2021-05-29 1355 362 CD 'Dawes' Chadron NE USA na DN82js 363 225
2021-05-29 1355 374 HY 'Nette' Hays KS USA na EM08js 515 320
2021-05-29 1354 350 RG 'Gally' Oklahoma City OK USA na EM15eh 400 823 511
2021-05-29 1354 356 ODX Ord NE USA na EN01mo 25 550 342
2021-05-29 1353 341 OIN Oberlin KS USA na DM99rt 25 384 239
2021-05-29 1353 347 GC 'Pieve' Garden City KS USA na DM97pt 25 436 271
2021-05-29 1351 275 GEY Greybull WY USA na DN54xm 50 579 360
2021-05-29 1351 280 GYZ 'Camp Guernsey' Guernsey WY USA na DN72pf 50 270 168
2021-05-29 1351 293 TOR Torrington WY USA na DN72wb 25 262 163
2021-05-10 0942 412 CMY 'Mc Coy' Sparta WI USA na EN43qw 10 1276 793
2021-05-10 0940 392 PNA 'Wenz' Pinedale WY USA na DN52ct 25 518 322
2021-05-10 0939 372 ZPA Glass (Prince Albert) SK CAN na DO73ff 25 1492 927
2021-05-10 0939 376 YAG Fort Frances ON CAN na EN38fq 40 1343 835
2021-05-10 0935 428 POH Pocahontas IA USA na EN22qr 25 928 577
2021-05-10 0830 201 ZWN 'Downs' Winnipeg (Snowhill) MB CAN na EN19ix 50 1283 797
2021-05-10 0645 391 DDP San Juan / Dorado / Luiz Munoz Marin Intl PR PTR ca FK68tl 2000 4390 2728
2021-05-10 0642 382 SP 'Huskk' Springfield IL USA na EM59cs 25 1301 808
2021-05-10 0636 257 XE Saskatoon SK CAN na DO62oe 25 1382 859
2021-05-10 0634 236 ZRJ Round Lake ON CAN na EO42iw 25 1794 1115
2021-05-10 0632 224 DN Dauphin MB CAN na DO91xc 25 1314 816
2021-04-25 1046 338 JZ 'Newbn' Lawrence KS USA na EM28kv 25 858 533
2021-04-25 1046 342 ST 'Hussk' St Cloud MN USA na EN35al 25 1102 685
2021-04-25 1015 338 TT 'Stutt' Stuttgart AR USA na EM44fm 25 1331 827
2021-04-25 1010 344 JL 'Lunns' Joplin MO USA na EM27re 958 595
2021-04-25 0919 347 ATA Atlanta TX USA na EM23vc 25 1221 759
2021-04-25 0915 335 BV 'Almnd' Batesville AR USA na EM45cq 25 1250 777
2021-04-25 0831 338 HR 'Sebas' Harlingen TX USA na EL16eh 25 1651 1026
2021-04-25 0734 344 UNU Juneau WI USA na EN53pk 1413 878
2021-04-25 0731 340 YY Mont Joli QC CAN na FN58un 500 3053 1897
2021-04-25 0631 338 UMP 'Metropolitan' Indianapolis IN USA na EM69xw 25 1618 1005
2021-04-24 1101 335 BK 'CHRLZ' Brookings SD USA na EN14mi 25 836 519
2021-04-24 1027 347 GC 'Pieve' Garden City KS USA na DM97pt 25 436 271
2021-04-24 1026 335 YLD Chapleau ON CAN na EN87hs 100 1942 1207
2021-04-24 1020 349 GW 'Teock' Greenwood MS USA na EM43wo 25 1495 929
2021-04-24 0935 344 CGQ 'Powell' Corsicana TX USA na EM12sb 1156 718
2021-04-24 0935 345 GF 'Hiser' Grand Forks ND USA na EN17ju 1091 678
2021-04-24 0934 344 XX Abbotsford BC CAN na CN89sa 1714 1065
2021-04-24 0933 341 DNI Denison TX USA na EM13pt 25 997 619
2021-04-24 0933 344 TKH 'Tallulah' Vicksburg LA USA na EM42lf 1512 940
2021-04-24 0932 336 LF La Salle MB CAN na EN19ip 50 1251 777
2021-04-24 0932 341 FO 'Barro' Fort Dodge IA USA na EN22um 25 948 589
2021-04-24 0632 347 PA Prince Albert SK CAN na DO73cf 25 1493 927
2021-04-24 0632 347 AFK Nebraska City NE USA na EN20bo 783 486
2021-04-24 0631 346 YXL Sioux Lookout ON CAN na EO40bc 1000 1539 956
2021-04-24 0630 338 RYN 'Ryan' Tucson AZ USA na DM42kd 400 1012 629
2021-04-23 2204 341 OIN Oberlin KS USA na DM99rt 25 384 239
2021-03-29 0532 365 TV 'Gwenn' Traverse City MI USA na EN74gr 30 1696 1054
2021-03-29 0530 362 YZS Coral Harbour NU CAN na EP84id 500 3053 1897
2021-03-27 0826 368 VIQ Neillsville WI USA na EN44rn 25 1304 810
2021-03-27 0820 365 DPY Deer Park WA USA na DN17gx 50 1344 835
2021-03-27 0818 362 SB Sudbury ON CAN na EN96mp 400 2083 1294
2021-03-27 0817 363 RNB 'Rainbow' Millville NJ USA na FM29kk 50 2550 1585
2021-03-27 0816 356 ZF Yellowknife NT CAN na DP22sj 1000 2589 1609
2021-03-27 0816 356 SJ 'Woole' San Angelo TX USA na DM91rg 1033 642
2021-03-27 0816 356 PI 'Tungg' Peoria IL USA na EN50eo 40 1310 814
2021-03-27 0815 352 VM 'Meana', Mena Intermountain Municipal AR USA na EM24xm 25 1137 707
2021-03-27 0814 350 RB Resolute Bay NU CAN na EQ24mr 3000 3916 2433
2021-03-27 0715 360 PN Port-Menier / Ile Anticosti QC CAN na FN79tu 500 3347 2080
2021-03-27 0635 368 ROQ Ruston LA USA na EM32qo 25 1370 851
2021-03-27 0634 365 PAL Palma EQA sa FI07cx 1000 5314 3302
2021-03-27 0632 353 AB 'Tomhi' Abilene TX USA na EM02dh 961 597
2021-03-27 0305 353 LI 'Lasky' Little Rock AR USA na EM34uq 400 1262 784
2021-03-27 0304 369 ZDX Coolidge Saint Johns ATG ca FK97cd 700 4854 3016
2021-03-27 0303 366 YMW Maniwaki QC CAN na FN26ae 500 2453 1524
2021-03-27 0259 362 CD 'Dawes' Chadron NE USA na DN82js 363 225
2021-03-27 0258 365 SYZ Shelbyville IL USA na EM59nj 25 1384 860
2021-03-27 0258 365 FT 'Mufin' Fort Worth TX USA na EM12hv 25 1030 640
2021-03-27 0257 368 VX Dafoe SK CAN na DO71ru 80 1339 832
2021-03-27 0257 368 SX Skookum (Cranbrook) BC CAN na DN29cw 500 1406 873
2021-03-27 0256 362 RPX Round Up MT USA na DN56rl 25 793 493
2021-03-27 0256 362 6T Foremost AB CAN na DN49gl 41 1187 738
2021-03-27 0256 365 AA 'Kenie' Fargo MN USA na EN17oa 100 1041 647
2021-03-27 0255 356 ZXE Barnes (Saskatoon) SK CAN na DO62rd 39 1376 855
2021-03-27 0255 356 ODX Ord NE USA na EN01mo 25 550 342
2021-03-27 0255 359 SDR Snyder TX USA na DM92mq 25 872 542
2021-03-27 0255 359 GGF Grant NE USA na DN90du 305 190
2021-03-27 0254 351 YKQ Waskaganish QC CAN na FO01pl 500 2403 1493
2021-03-27 0254 351 AE 'Dudle' Albuquerque NM USA na DM65pf 530 329
2021-03-27 0254 353 PG Portage MB CAN na EN09vu 25 1238 769
2021-03-27 0254 353 IN 'Raize' International Falls MN USA na EN38il 100 1341 833
2021-03-27 0253 350 CP 'Acore' Cahokia / St Louis IL USA na EM48xm 25 1299 807
2021-03-27 0252 350 RG 'Gally' Oklahoma City OK USA na EM15eh 400 823 511
2021-02-22 0537 336 BV Champlain QC CAN na FN46iu 25 2815 1749
2021-02-22 0536 338 ZEM Eastmain QC CAN na FO02rf 25 2446 1520
2021-02-22 0525 341 ZLP Toronto (Meadowvale / Mississauga) ON CAN na FN03dp 40 2136 1327
2021-02-21 0441 206 XBE Bearskin Lake ON CAN na EO43lx 25 1893 1176
2021-02-21 0440 376 YAG Fort Frances ON CAN na EN38fq 40 1343 835
2021-02-21 0440 413 YHD Dryden ON CAN na EN39nu 250 1468 912
2021-02-21 0439 276 YEL Elliot Lake ON CAN na EN86qi 250 1952 1213
2021-02-21 0439 328 YTL Big Trout Lake ON CAN na EO53bt 1000 1929 1199
2021-02-21 0436 334 YER Fort Severn ON CAN na EO65ex 195 2204 1369
2021-02-21 0415 200 YAQ Kasabonika ON CAN na EO53qm 50 1963 1220
2021-02-21 0414 382 YPL Pickle Lake ON CAN na EO41vk 500 1726 1072
2021-02-21 0413 362 SB Sudbury ON CAN na EN96mp 400 2083 1294
2021-02-21 0412 355 YWP Webequie ON CAN na EO62hx 100 1984 1233
2021-02-21 0411 346 YXL Sioux Lookout ON CAN na EO40bc 1000 1539 956
2021-02-21 0410 326 YQK Kenora ON CAN na EN29st 200 1387 862
2021-02-21 0410 332 QT Thunder Bay ON CAN na EN58gi 1000 1560 970
2021-02-21 0408 274 YPM Pikangikum ON CAN na EO31at 25 1583 983
2021-02-21 0406 236 ZRJ Round Lake ON CAN na EO42iw 25 1794 1115
2021-02-21 0405 223 YYW Armstrong ON CAN na EO50lh 100 1708 1061
2021-02-21 0405 233 QN Nakina ON CAN na EO60qe 400 1842 1145
2021-02-21 0404 218 RL Red Lake ON CAN na EO31cb 1000 1524 947
2021-02-21 0344 253 GB 'Garno' Marshall MN USA na EN24bm 25 918 570
2021-02-21 0338 412 CMY 'Mc Coy' Sparta WI USA na EN43qw 10 1276 793
2021-02-21 0332 335 ZKF Kitchener (Wellington) ON CAN na EN93ul 15 2088 1297
2021-02-21 0320 341 OIN Oberlin KS USA na DM99rt 25 384 239
2021-02-21 0319 338 RYN 'Ryan' Tucson AZ USA na DM42kd 400 1012 629
2021-02-21 0318 335 YLD Chapleau ON CAN na EN87hs 100 1942 1207
2021-02-21 0316 287 ZWG 'Stoney' Medicine Rock (Winnipeg) MB CAN na EN19jx 17 1286 799
2021-02-21 0316 300 YIV Island Lake MB CAN na EO23qu 500 1746 1085
2021-02-21 0315 269 UDE Delta MB CAN na EO00ud 50 1264 785
2021-02-21 0314 250 FO Flin Flon MB CAN na DO94dq 1600 1672 1039
2021-02-21 0314 266 SAA Saratoga WY USA na DN61ok 50 233 145
2021-02-21 0312 233 OKS Oshkosh NE USA na DN81tj 25 286 178
2021-02-21 0312 244 TH Thompson MB CAN na EO15bt 1000 1855 1153
2021-02-21 0307 209 ITR 'Kit Carson' Burlington CO USA na DM89uf 25 245 152
2021-02-21 0304 404 MOG Montague CA USA na CN81sr 25 1479 919
2021-02-21 0303 338 UMP 'Metropolitan' Indianapolis IN USA na EM69xw 25 1618 1005
2021-02-21 0302 329 BQP Bastrop LA USA na EM42bs 25 1414 878
2021-02-21 0301 278 CEP 'Capitan' Ruidoso NM USA na DM73hl 25 705 438
2021-02-21 0300 257 XE Saskatoon SK CAN na DO62oe 25 1382 859
2021-02-21 0226 340 YY Mont Joli QC CAN na FN58un 500 3053 1897
2021-02-20 1210 341 FO 'Barro' Fort Dodge IA USA na EN22um 25 948 589
2021-02-20 1156 344 XX Abbotsford BC CAN na CN89sa 1714 1065
2021-02-20 0730 338 JZ 'Newbn' Lawrence KS USA na EM28kv 25 858 533
2021-02-20 0340 344 JA 'Dinns' Jacksonville FL USA na EM90cl 400 2345 1457
2021-02-20 0202 344 CGQ 'Powell' Corsicana TX USA na EM12sb 1156 718
2021-02-20 0142 341 DNI Denison TX USA na EM13pt 25 997 619
2021-02-20 0128 336 LF La Salle MB CAN na EN19ip 50 1251 777
2021-02-20 0126 344 YC Calgary AB CAN na DO31bb 1426 886
2021-02-10 0748 362 AK Akron OH USA na EN91hb 2001 1244
2021-02-10 0735 248 KZ 'Buttonville' Stouffville (Toronto) ON CAN na FN03iw 25 2171 1349
2021-02-10 0541 381 MNI Manning SC USA na EM93vo 25 2310 1435
2021-02-10 0536 260 GHJ 'Stonia' Gastonia NC USA na EM95ke 2164 1345
2021-02-10 0532 240 TIR Tirios (PA) BRA sa GJ22af 6465 4017
2021-02-10 0521 248 CG 'Dutch' Cape Girardeau MO USA na EM57dg 1361 846
2021-01-30 0242 414 LYI Libby MT USA na DN28gh 100 1257 781
2021-01-29 0651 408 SN 'St. Catharines' Saint Catharines ON CAN na FN03id 12 2168 1347
2021-01-29 0639 335 CK 'Snuff' Clarksville TN USA na EM66hm 1584 984
2021-01-29 0632 248 MOB 'Wisle' Mobile AL USA na EM50us 400 1817 1129
2021-01-29 0610 338 CYR 'Caidy' Cairo GA USA na EM70wv 25 2133 1325
2021-01-28 0849 397 SB 'Petis' San Bernardino CA USA na DM14hb 50 1267 787
2021-01-28 0837 305 BNE Hewanorra LCA ca FK93mr 100 5173 3214
2021-01-28 0654 516 YWA Petawawa ON CAN na FN15iv 25 2347 1458
2021-01-28 0648 373 2Q Mont-Laurier QC CAN na FN26go 25 2497 1551
2021-01-28 0645 344 XX Abbotsford BC CAN na CN89sa 1714 1065
2021-01-28 0644 341 ZLP Toronto (Meadowvale / Mississauga) ON CAN na FN03dp 40 2136 1327
2021-01-28 0635 239 TN 'Tribe' Menominee WI USA na EN65db 1533 953
2021-01-24 0617 326 SU 'Snoop' Saint Louis MO USA na EM48op 25 1233 766
2021-01-24 0544 326 XJ Fort St. John BC CAN na CO96ng 100 2164 1345
2021-01-24 0541 332 WC White Rock (Abbotsford) BC CAN na CN89oa 1735 1078
2021-01-24 0350 332 CZX Crosbyton TX USA na DM93jo 770 478
2021-01-23 1045 332 POA Pahoa HI HWA oc BK29mn 400 5239 3255
2021-01-23 1031 329 PJ Robinson (Whitehorse) YT CAN na CP20nk 250 3076 1911
2021-01-23 1030 326 DC Princeton BC CAN na CN99rl 500 1625 1009
2021-01-23 0932 323 TAB Crown Point TRD ca FK91nd 5377 3341
2021-01-23 0931 328 BZJ 'Bellgrove' Indiantown Gap PA USA na FN10rk 2413 1499
2021-01-23 0831 328 5J Coronation AB CAN na DO42gb 141 1448 900
2021-01-23 0830 325 YJQ Bella Bella (Campbell Island) BC CAN na CO52we 2235 1389
2021-01-23 0630 329 X2 Athabasca AB CAN na DO34jr 1766 1097
2021-01-23 0322 330 MF 'Missi' Mc Allen TX USA na EL06ug 1630 1013
2021-01-23 0237 332 YFM La Grande 4 QC CAN na FO33dr 2000 2809 1745
2021-01-23 0235 323 KR Squaw Schefferville QC CAN na FO64ot 250 3273 2034
2021-01-23 0234 332 SG 'Depre' Green Bay WI USA na EN54wj 25 1482 921
2021-01-23 0114 334 LH 'Egrow' Bloomington IL USA na EN50nn 1374 854
2021-01-23 0111 332 DN 'Julip' Danville IL USA na EN60fg 1488 925
2021-01-23 0101 331 JV 'Catch' Jeffersonville IN USA na EM78dl 1670 1038
2021-01-23 0057 329 YEK Arviat NU CAN na EP21xc 500 2484 1543
2021-01-23 0038 329 AAA 'Abraham' Lincoln IL USA na EN50hd 25 1334 829
2021-01-23 0035 323 OUK Calhoun GA USA na EM74mj 24 1875 1165
2021-01-23 0025 332 XH Medicine Hat AB CAN na DO40oa 50 1221 759
2021-01-23 0016 329 CH 'Ashly' Charleston SC USA na EM92wx 400 2346 1458
2021-01-23 0016 332 FIS 'Fish Hook' Key West FL USA na EL94cn 400 2753 1710
2021-01-23 0015 320 YQF Red Deer AB CAN na DO32bd 50 1529 950
2021-01-23 0015 326 PKZ 'Pickens' Pensacola FL USA na EM60jk 400 1922 1194
2021-01-23 0012 332 QT Thunder Bay ON CAN na EN58gi 1000 1560 970
2021-01-23 0012 334 YER Fort Severn ON CAN na EO65ex 195 2204 1369
2021-01-23 0011 326 MA 'Farly' Midland TX USA na DM81ux 400 905 562
2021-01-23 0011 328 YTL Big Trout Lake ON CAN na EO53bt 1000 1929 1199
2021-01-23 0011 332 IC 'Piche' Wichita KS USA na EM17gn 25 704 437
2021-01-23 0010 326 YQK Kenora ON CAN na EN29st 200 1387 862
2021-01-22 2111 329 PMV Plattsmouth NE USA na EN20bw 25 786 488
2021-01-18 0833 221 HM Hamilton (Carluke) ON CAN na EN93xc 25 2107 1309
2021-01-18 0742 385 EMR 'Emory' Augusta GA USA na EM93al 400 2169 1348
2021-01-18 0738 376 BHC Baxley GA USA na EM81tr 2225 1383
2021-01-18 0631 219 AY 'Wiket' Waycross GA USA na EM81th 2249 1397
2021-01-17 0314 368 TEC 'Tech' Blacksburg VA USA na EM97te 25 2159 1341
2021-01-16 1031 368 EU 'Murey' Murray KY USA na EM56ur 25 1499 932
2021-01-16 0010 283 SCO Scobey MT USA na DN78gt 1001 622
2021-01-10 0718 415 SLS Salinas (Guayas) EQA sa EI97mt 5274 3277
2021-01-10 0636 335 CV 'Hisan' Clovis NM USA na DM84ji 628 390
2021-01-06 1035 343 ML Minami Tori Shima MTS as QL64xg 1250 9178 5703
2021-01-06 0745 283 DUT 'Dutch Harbor' Unalaska AK ALS na AO63rv 1000 4763 2959
2021-01-05 0757 400 CI 'Koloe' Sault Ste. Marie MI USA na EN76rh 25 1808 1124
2021-01-05 0756 394 RWO 'Woody Island' Kodiak AK ALS na BO37us 3885 2414
2021-01-05 0739 350 VTR 'Takotna River' McGrath AK ALS na BP22fw 4179 2596
2021-01-05 0739 350 TUF 'Stuckey' Ruston LA USA na EM32qj 1385 860
2021-01-05 0737 350 D7 Kincardine ON CAN na EN94ee 25 1988 1235
2021-01-05 0731 277 ACE 'Kachemak' Homer AK ALS na BO49gp 3881 2411
2021-01-05 0720 390 AES 'Nabesna' Northway AK ALS na BP92bx 3538 2198
2021-01-05 0720 391 EEF 'Elephant' Sisters Island AK ALS na CO28ie 2961 1840
2021-01-05 0709 355 AUB 'Saldo' King Salmon AK ALS na BO18or 4162 2586
2021-01-05 0705 525 ICW 'Ice Pool' Nenana AK ALS na BP54ln 25 3931 2443
2021-01-05 0701 339 OP 'Yates' Thomaston GA USA na EM72vw 2009 1248
2021-01-05 0656 266 ICK 'Nichols' Annette Island AK ALS na CO45eb 2593 1611
2021-01-05 0643 388 RNW Chocowinity NC USA na FM15km 25 2492 1548
2021-01-05 0641 388 MD 'Cabbi' Carbondale / Murphysboro IL USA na EM57ju 1387 862
2021-01-04 0633 233 ALJ Johnstone Point Island AK ALS na BP60ql 1000 3650 2268
2021-01-04 0632 385 OCC 'Ocean Cape' Yakutat AK ALS na CO09dn 3257 2024
2021-01-04 0631 209 CYT Yakataga AK ALS na BP80sc 1000 3422 2126
2020-12-29 0644 269 PK 'Spida' Park Rapids MN USA na EN26mu 25 1129 701
2020-12-20 1125 236 OW Ramsayville (Ottawa) ON CAN na FN25fi 60 2477 1539
2020-12-20 0931 275 RU 'Rovdy' Salisbury NC USA na EM95sr 2200 1367
2020-12-20 0730 428 POH Pocahontas IA USA na EN22qr 25 928 577
2020-12-20 0522 372 UQN 'Onyun' Vidalia GA USA na EM82uf 25 2205 1370
2020-12-20 0424 350 LF 'Flufy' Lufkin TX USA na EM21of 1329 826
2020-12-18 0603 344 YGV Havre St Pierre QC CAN na FO80eg 25 3404 2115
2020-12-18 0232 250 UGS 'University' Athens / Albany OH USA na EM89wg 25 1960 1218
2020-12-15 0516 392 ML 'Sabar' Monroe LA USA na EM32wk 1418 881
2020-12-15 0504 358 YKG Kangiqsujuaq QC CAN na FP41ao 1000 3293 2046
2020-12-15 0300 201 YKX Kirkland Lake ON CAN na FN08bf 200 2206 1370
2020-12-13 0412 230 QB Quebec QC CAN na FN46gr 200 2802 1741
2020-12-11 0350 353 GVB 'Bogalusa' George R Carr Memorial Airfield LA USA na EM50bv 1691 1051
2020-12-11 0342 260 ST 'Tario' Saint Joseph MO USA na EM29nq 25 869 540
2020-11-28 0625 266 ICK 'Nichols' Annette Island AK ALS na CO45eb 2593 1611
2020-11-28 0354 233 VHN Van Horn TX USA na DM71ob 25 973 605
2020-11-27 0754 321 YSY Sachs Harbour NT CAN na CQ71ix 3748 2329
2020-11-22 0641 240 BVS 'Skagit / Bay View' Burlington / Mt Vernon WA USA na CN88sl 25 1685 1047
2020-11-22 0634 240 TIR Tirios (PA) BRA sa GJ22af 6465 4017
2020-11-22 0533 257 MB 'Olste' Saginaw MI USA na EN73vl 1773 1102
2020-11-22 0523 242 LE 'Blayd' Lexington KY USA na EM77qx 1774 1103
2020-11-22 0515 258 ZSJ Sandy Lake ON CAN na EO33hb 500 1718 1068
2020-11-22 0428 248 KZ 'Buttonville' Stouffville (Toronto) ON CAN na FN03iw 25 2171 1349
2020-11-21 1003 248 CG 'Dutch' Cape Girardeau MO USA na EM57dg 1361 846
2020-11-21 0730 242 ZT Port Hardy BC CAN na CO60gq 500 2117 1316
2020-11-21 0548 254 LLW 'Woodville' Elizabeth City NC USA na FM16ug 50 2537 1576
2020-11-21 0534 257 FWC 'Wayne County' Fairfield IL USA na EM58tj 25 1444 897
2020-11-21 0532 242 LKG 'Lindbergh' Americus GA USA na EM72we 25 2057 1278
2020-11-21 0528 256 EB 'Namao' Edmonton AB CAN na DO33gq 50 1668 1036
2020-11-21 0527 251 BR 'Larew' Brainerd MN USA na EN26xk 25 1155 718
2020-11-21 0527 254 SM Fort Smith AB CAN na DO49bx 400 2292 1424
2020-11-21 0523 251 YCD Nanaimo BC CAN na CN89bd 500 1811 1125
2020-11-21 0520 251 SV 'Cozey' Silver City NM USA na DM52xp 841 522
2020-11-21 0516 245 UDG Darlington SC USA na FM04bk 25 2301 1430
2020-11-21 0511 420 PK Olathe KS USA na EM28ps 25 896 557
2020-11-21 0510 420 FQ 'Montz' Fairmont MN USA na EN23tp 25 981 610
2020-11-21 0510 423 PCW Port Clinton OH USA na EN81nm 25 1874 1164
2020-11-21 0510 426 UV 'Tunng' Oxford MS USA na EM54ej 25 1491 926
2020-11-21 0510 426 IZS Montezuma GA USA na EM72xi 25 2054 1276
2020-11-21 0509 257 JYR York NE USA na EN10ev 25 640 397
2020-11-21 0509 420 TU 'Veron' Tupelo MS USA na EM54oe 25 1569 975
2020-11-21 0508 257 XE Saskatoon SK CAN na DO62oe 25 1382 859
2020-11-21 0508 257 LW Kelowna BC CAN na DO00hb 50 1598 993
2020-11-21 0506 257 HCY Cowley WY USA na DN54sv 50 631 392
2020-11-21 0505 254 5B Summerside PE CAN na FN86bj 250 3381 2101
2020-11-21 0505 257 DT 'Pinck' Denton TX USA na EM13jg 25 1008 627
2020-11-21 0502 254 ZYC Calgary AB CAN na DO21xe 25 1444 897
2020-11-21 0501 255 SW 'Blaki' Stillwater OK USA na EM16kf 50 799 497
2020-11-21 0500 250 FO Flin Flon MB CAN na DO94dq 1600 1672 1039
2020-11-21 0500 253 OC 'Nados' Nacogdoches TX USA na EM21pl 25 1313 816
2020-11-21 0500 253 GB 'Garno' Marshall MN USA na EN24bm 25 918 570
2020-11-21 0500 253 DD 'Cobbs' Columbus OH USA na EM89lr 49 1875 1165
2020-11-21 0459 248 UL Montreal QC CAN na FN35bl 1000 2608 1620
2020-11-21 0459 248 PQF Mesquite TX USA na EM12rt 25 1088 676
2020-11-21 0459 251 JZY Macomb IL USA na EN40rm 25 1233 766
2020-11-21 0459 251 AM 'Pande' Amarillo TX USA na DM95cd 400 593 368
2020-11-21 0458 248 WG Winnipeg MB CAN na EN19hv 250 1272 790
2020-11-21 0458 248 QL Lethbridge AB CAN na DN39no 1251 777
2020-11-21 0457 245 PWF 'Sportys' Batavia OH USA na EM79vb 25 1787 1110
2020-11-21 0456 245 CB Cambridge Bay NU CAN na DP79lc 1000 3256 2023
2020-11-21 0455 244 TH Thompson MB CAN na EO15bt 1000 1855 1153
2020-11-21 0455 245 FS 'Rokky' Sioux Falls SD USA na EN13ol 100 797 495
2020-11-21 0454 242 XC Cranbrook BC CAN na DN29cq 400 1385 860
2020-11-21 0451 240 CJ 'Calde' Springfield IL USA na EM59et 1315 817
2020-11-21 0312 245 HU 'Yinno' Terre Haute IN USA na EM69hj 1512 939
2020-11-21 0232 245 GTP 'Patten' Thomasville GA USA na EM80cw 2157 1340
2020-11-20 0224 329 CH 'Ashly' Charleston SC USA na EM92wx 400 2346 1458
2020-11-20 0042 391 GXD Nacogdoches TX USA na EM21pp 25 1300 808
2020-11-18 2342 209 ITR 'Kit Carson' Burlington CO USA na DM89uf 25 245 152
2020-11-18 1219 353 5F Fox Creek AB CAN na DO14oj 1843 1145
2020-11-18 1217 341 YCS Chesterfield Inlet NU CAN na EP43pi 25 2783 1729
2020-11-18 1207 397 SB 'Petis' San Bernardino CA USA na DM14hb 50 1267 787
2020-11-18 1137 350 VTR 'Takotna River' McGrath AK ALS na BP22fw 4179 2596
2020-11-18 1132 221 9A Hanna AB CAN na DO41bp 50 1417 880
2020-11-18 1115 335 AWS 'Lawson' Columbus GA USA na EM72lh 1976 1227
2020-11-18 1104 251 SV 'Cozey' Silver City NM USA na DM52xp 841 522
2020-11-18 0540 230 AC Pleasant Lake (Yarmouth) NS CAN na FN63xu 3231 2008
2020-11-18 0519 417 SLP 'First River' Shelby NC USA na EM95eg 25 2118 1316
2020-11-18 0502 515 OS 'Fuler' Columbus OH USA na EN80jb 25 1857 1154
2020-11-18 0447 227 SQ 'Pnthr' Connersville IN USA na EM79ks 25 1698 1055
2020-11-18 0433 317 ZZR 'Trenton (Apt)' Severn ON CAN na FN14eb 50 2305 1432
2020-11-18 0423 366 EZM Eastman GA USA na EM82kd 25 2141 1330
2020-11-18 0415 410 GG 'Veels' Longview TX USA na EM22ok 1231 765
2020-11-17 0657 385 PTP Pointe a Pitre GDL ca FK96eg 4931 3064
2020-11-16 0322 211 AN 'Bogga' Anniston AL USA na EM73am 25 1835 1140
2020-11-16 0318 201 YVZ Deer Lake ON CAN na EO22xp 25 1654 1028
2020-11-16 0247 375 OGM Ontonagon MI USA na EN56hu 25 1485 923
2020-11-16 0144 263 GR 'Knobs' Grand Rapids MI USA na EN72hv 1673 1039
2020-11-16 0139 207 YNE Norway House MB CAN na EO13bx 1000 1664 1034
2020-11-15 1030 316 MAJ Majuro Atoll (Dalap Island) MHL oc RJ57pb 8964 5570
2020-11-14 1025 320 AI Aitutaki CKS oc BH01ce 8637 5366
2020-11-14 0629 274 FR Fort Resolution NT CAN na DP31ed 2443 1518
2020-11-14 0625 339 UAM Santiago De Cuba CUB ca FK29cx 3550 2206
2020-11-14 0550 281 CA Cartwright NL CAN na GO13lr 1000 3879 2410
2020-11-14 0530 323 KR Squaw Schefferville QC CAN na FO64ot 250 3273 2034
2020-11-14 0323 391 FIQ 'Fiddlers' Morganton NC USA na EM95dr 25 2094 1301
2020-11-14 0312 260 MTH Marathon FL USA na EL94kr 100 2789 1733
2020-11-13 0552 365 TV 'Gwenn' Traverse City MI USA na EN74gr 30 1696 1054
2020-11-13 0344 418 EL 'Lados' El Dorado AR USA na EM33pg 1318 819
2020-11-13 0234 407 AQ 'Kooky' Appleton WI USA na EN54tf 25 1458 906
2020-11-12 0633 415 SLS Salinas (Guayas) EQA sa EI97mt 5274 3277
2020-11-07 0609 405 CON Concepcion PRG sa GG16gn 200 8588 5336
2020-11-06 0305 341 CCJ 'Clark Co' Springfield OH USA na EM89cu 25 1810 1125
2020-11-06 0209 407 HRU Herington KS USA na EM18oq 25 721 448
2020-11-05 0828 251 BR 'Larew' Brainerd MN USA na EN26xk 25 1155 718
2020-11-05 0737 323 TAB Crown Point TRD ca FK91nd 5377 3341
2020-11-05 0731 212 SJ Saint John NB CAN na FN75cj 1000 3238 2012
2020-11-05 0338 200 YJ Victoria BC CAN na CN88hp 100 1753 1089
2020-11-04 1006 291 9Q Amos QC CAN na FN08vn 25 2334 1450
2020-11-04 0932 227 GW 'Aubon' De Kalb County, Auburn IN USA na EN71mh 25 1701 1057
2020-11-04 0838 385 OCC 'Ocean Cape' Yakutat AK ALS na CO09dn 3257 2024
2020-11-04 0832 230 BU 'Boutn' Columbus OH USA na EM89jt 1860 1156
2020-11-04 0530 201 ZWN 'Downs' Winnipeg (Snowhill) MB CAN na EN19ix 50 1283 797
2020-11-03 0225 284 QD The Pas MB CAN na DO93lx 500 1603 996
2020-11-02 0404 410 ZQ CCGS Sir Wilfrid Laurier BC CAN na
2020-11-01 1200 245 PWF 'Sportys' Batavia OH USA na EM79vb 25 1787 1110
2020-11-01 1028 214 YIO Pond Inlet NU CAN na FQ12aq 25 3939 2448
2020-11-01 0533 362 SUR Fitzgerald GA USA na EM81io 25 2158 1341
2020-11-01 0518 266 ZHM Hamilton (Binbrook) ON CAN na FN03cd 50 2127 1322
2020-11-01 0517 257 MB 'Olste' Saginaw MI USA na EN73vl 1773 1102
2020-11-01 0516 254 LLW 'Woodville' Elizabeth City NC USA na FM16ug 50 2537 1576
2020-11-01 0512 242 LKG 'Lindbergh' Americus GA USA na EM72we 25 2057 1278
2020-11-01 0507 209 CYT Yakataga AK ALS na BP80sc 1000 3422 2126
2020-11-01 0502 417 HQT 'Harnett' Coats NC USA na FM05pk 25 2360 1466
2020-11-01 0448 351 MSQ Culpeper VA USA na FM18bk 25 2339 1453
2020-11-01 0440 315 UBR Cayo Las Brujas CUB ca FL02ko 3100 1926
2020-11-01 0438 302 6K Vernon BC CAN na DO00ii 25 1615 1003
2020-11-01 0431 260 UFX St. Felix de Valois QC CAN na FN36ge 25 2645 1643
2020-11-01 0424 207 FD Brantford ON CAN na EN93tb 2080 1292
2020-11-01 0413 362 MT Manitowac WI USA na EN64de 1509 938
2020-11-01 0400 260 CL 'Rowdy' College Station TX USA na EM10tl 1301 809
2020-11-01 0350 214 K8 Nemiscau QC CAN na FO11wq 2000 2578 1602
2020-11-01 0349 210 IOB Mount Sterling KY USA na EM88ab 49 1829 1137
2020-11-01 0347 201 GL La Grande Riviere QC CAN na FO13dp 500 2563 1592
2020-11-01 0326 307 M5 Manning AB CAN na DO16ew 2111 1311
2020-11-01 0322 278 N1 Assiniboia SK CAN na DN79ar 1105 686
2020-11-01 0320 272 ZMR 'Mirabel' Montreal QC CAN na FN25wo 200 2589 1609
2020-11-01 0312 242 LE 'Blayd' Lexington KY USA na EM77qx 1774 1103
2020-11-01 0308 223 MW 'Onida' Franklin OH USA na EM79un 1772 1101
2020-11-01 0305 216 YFA Fort Albany ON CAN na EO92de 200 2250 1398
2020-11-01 0304 209 SYS 'Stoystown' Somerset PA USA na FN00nc 25 2222 1381
2020-11-01 0249 340 ZJT Stephenville NL CAN na GN08tn 3782 2350
2020-11-01 0246 336 BV Champlain QC CAN na FN46iu 25 2815 1749
2020-11-01 0238 276 YHR Chevery QC CAN na GO00el 500 3688 2292
2020-11-01 0238 278 AUR 'Sulfy' Sulphur LA USA na EM30ge 25 1500 932
2020-11-01 0236 272 RH 'Arsha' Rhinelander WI USA na EN55ep 1413 878
2020-11-01 0234 263 YGK Kingston ON CAN na FN14qh 1000 2386 1482
2020-11-01 0227 232 GP Gaspe QC CAN na FN78ts 400 3342 2076
2020-11-01 0226 227 9X Brooks AB CAN na DO40ap 50 1319 820
2020-11-01 0221 216 ME Matane QC CAN na FN68ft 100 3110 1933
2020-11-01 0221 220 BX Blanc Sablon / Lourdes de Blanc Sablon QC CAN na GO11jk 2000 3859 2398
2020-11-01 0040 338 JZ 'Newbn' Lawrence KS USA na EM28kv 25 858 533
2020-11-01 0036 257 DT 'Pinck' Denton TX USA na EM13jg 25 1008 627
2020-11-01 0035 253 DD 'Cobbs' Columbus OH USA na EM89lr 49 1875 1165
2020-10-31 1051 276 ZTH 'Headframe' Thompson MB CAN na EO15ct 25 1857 1154
2020-10-31 1045 236 DO 'Dougy' Blue Lake (Minocqua) WI USA na EN55du 25 1416 880
2020-10-31 1039 410 TEST UNID XUN xx
2020-10-31 1039 410 WXYZ Unknown XUS xx
2020-10-31 1033 361 E3 Wabasca AB CAN na DO35cx 1908 1186
2020-10-31 1020 388 CFJ Crawfordsville IN USA na EM69nx 25 1547 961
2020-10-31 0332 382 PCZ Waupaca WI USA na EN54lh 25 1409 876
2020-10-26 0500 344 YGV Havre St Pierre QC CAN na FO80eg 25 3404 2115
2020-10-26 0402 365 PAL Palma EQA sa FI07cx 1000 5314 3302
2020-10-26 0400 280 QX Gander NL CAN na GN28px 1000 4047 2515
2020-10-26 0058 227 TNZ 'Lawrence Co.' Walnut Ridge AR USA na EM46me 25 1296 805
2020-10-25 1130 356 ZF Yellowknife NT CAN na DP22sj 1000 2589 1609
2020-10-25 1130 372 UQN 'Onyun' Vidalia GA USA na EM82uf 25 2205 1370
2020-10-25 1115 332 FIS 'Fish Hook' Key West FL USA na EL94cn 400 2753 1710
2020-10-25 1111 426 UV 'Tunng' Oxford MS USA na EM54ej 25 1491 926
2020-10-25 1108 400 1L Fort MacKay / Firebag AB CAN na DO47mg 1987 1235
2020-10-25 1104 224 BH 'Mc Den' Birmingham AL USA na EM63nm 400 1760 1094
2020-10-25 1103 371 FQW 'Walter Hill' Murfreesboro TN USA na EM65tx 25 1689 1049
2020-10-25 1102 212 YGX Gillam MB CAN na EO26pi 1988 1235
2020-10-25 0731 309 GPI Guapi CLM sa FJ12bn 500 4964 3084
2020-10-25 0157 389 TW 'Strik' Twin Falls ID USA na DN22tl 835 519
2020-10-25 0156 385 UWL New Castle IN USA na EM79iv 25 1682 1045
2020-10-25 0155 386 HAU 'Hauser' Helena MT USA na DN46cn 25 928 577
2020-10-25 0152 378 UX Hall Beach NU CAN na EP98is 400 3517 2185
2020-10-25 0137 296 LGD La Grande OR USA na DN15ai 25 1222 759
2020-10-25 0135 284 BT 'Rundi' Baton Rouge LA USA na EM40jn 1621 1007
2020-10-25 0126 423 PCW Port Clinton OH USA na EN81nm 25 1874 1164
2020-10-25 0120 369 ZDX Coolidge Saint Johns ATG ca FK97cd 700 4854 3016
2020-10-25 0119 363 RNB 'Rainbow' Millville NJ USA na FM29kk 50 2550 1585
2020-10-25 0101 281 DMO Sedalia MO USA na EM38jq 25 1026 637
2020-10-25 0054 206 QI Yarmouth NS CAN na FN63wt 500 3225 2004
2020-10-25 0053 198 DIW Dixon NC USA na FM14gn 2000 2501 1554
2020-10-24 1405 353 IN 'Raize' International Falls MN USA na EN38il 100 1341 833
2020-10-24 1359 267 HET Henryetta OK USA na EM15xj 25 932 579
2020-10-24 0954 353 LLD Lanai HI HWA oc BL10ms 2000 5328 3311
2020-10-24 0949 382 YE Fort Nelson BC CAN na CO88pt 100 2453 1524
2020-10-24 0946 365 SYZ Shelbyville IL USA na EM59nj 25 1384 860
2020-10-24 0457 419 RYS 'Grosse Ile' Detroit / Grosse Ile MI USA na EN82kc 25 1853 1151
2020-10-24 0453 403 AZC Colorado City AZ USA na DM36lx 40 765 475
2020-10-24 0452 395 CA 'Harvs' Newton KS USA na EM18id 25 695 432
2020-10-24 0435 402 CV Carlz Carlsbad NM USA na DM72tg 841 522
2020-10-24 0434 407 AQ 'Kooky' Appleton WI USA na EN54tf 25 1458 906
2020-10-24 0221 417 IY 'Chukk' Charles City IA USA na EN33pd 25 1091 678
2020-10-24 0219 408 MW 'Pelly' Moses Lake WA USA na DN07ic 1404 872
2020-10-24 0218 404 MOG Montague CA USA na CN81sr 25 1479 919
2020-10-24 0214 391 DDP San Juan / Dorado / Luiz Munoz Marin Intl PR PTR ca FK68tl 2000 4390 2728
2020-10-24 0208 345 GF 'Hiser' Grand Forks ND USA na EN17ju 1091 678
2020-10-24 0201 335 BK 'CHRLZ' Brookings SD USA na EN14mi 25 836 519
2020-10-24 0159 326 MA 'Farly' Midland TX USA na DM81ux 400 905 562
2020-10-24 0153 257 HCY Cowley WY USA na DN54sv 50 631 392
2020-10-24 0148 216 YFA Fort Albany ON CAN na EO92de 200 2250 1398
2020-10-23 2301 347 AFK Nebraska City NE USA na EN20bo 783 486
2020-10-23 2259 317 VC La Ronge SK CAN na DO75ic 500 1700 1056
2020-10-23 2255 209 ITR 'Kit Carson' Burlington CO USA na DM89uf 25 245 152
2020-10-18 1251 378 AP Active Pass (Mayne Island) BC CAN na CN88iu 25 1758 1092
2020-10-18 1250 376 PVQ Put River Deadhorse AK ALS na BQ50sf 260 4191 2604
2020-10-18 1248 332 XT Terrace BC CAN na CO54ri 2383 1481
2020-10-18 1239 380 GR 'Sancy' Grand Island NE USA na EN00uu 584 363
2020-10-18 1237 365 MA Mayo YT CAN na CP23bp 500 3329 2068
2020-10-18 1234 239 5Q Fontanges QC CAN na FO44jn 2993 1860
2020-10-18 1231 332 WC White Rock (Abbotsford) BC CAN na CN89oa 1735 1078
2020-10-17 1258 203 YBL Campbell River BC CAN na CO70ha 1952 1213
2020-10-17 1254 391 EEF 'Elephant' Sisters Island AK ALS na CO28ie 2961 1840
2020-10-17 1251 356 PND 'Abate' Portland OR USA na CN85lp 1602 995
2020-10-17 1250 353 AL 'Trina' Walla Walla WA USA na DN06ve 1281 796
2020-10-17 1248 326 XJ Fort St. John BC CAN na CO96ng 100 2164 1345
2020-10-17 1246 283 DUT 'Dutch Harbor' Unalaska AK ALS na AO63rv 1000 4763 2959
2020-10-17 1244 233 ALJ Johnstone Point Island AK ALS na BP60ql 1000 3650 2268
2020-10-17 1237 390 HBT Sand Point (Borland) AK ALS na AO95rh 4367 2713
2020-10-17 1237 390 AES 'Nabesna' Northway AK ALS na BP92bx 3538 2198
2020-10-17 1236 385 OCC 'Ocean Cape' Yakutat AK ALS na CO09dn 3257 2024
2020-10-17 1235 358 SIT Sitka AK ALS na CO26fu 2903 1803
2020-10-17 1234 343 ML Minami Tori Shima MTS as QL64xg 1250 9178 5703
2020-10-17 1234 355 AUB 'Saldo' King Salmon AK ALS na BO18or 4162 2586
2020-10-17 1227 225 X5 Vegreville AB CAN na DO33xm 25 1613 1002
2020-10-17 1226 221 QU Grande Prairie AB CAN na DO05od 50 1985 1233
2020-10-16 0146 236 ZRJ Round Lake ON CAN na EO42iw 25 1794 1115
2020-10-16 0144 263 QY Sydney NS CAN na GN06af 500 3682 2288
2020-10-16 0140 266 SAA Saratoga WY USA na DN61ok 50 233 145
2020-10-15 1207 530 ADK 'Mount Moffett' Adak Island AK ALS na AO11pu 5476 3402
2020-10-15 0836 256 EB 'Namao' Edmonton AB CAN na DO33gq 50 1668 1036
2020-10-15 0834 207 PY Fort Chipewyan AB CAN na DO48ks 50 2151 1337
2020-10-15 0828 399 ZHD 'Thunder' Dryden ON CAN na EN39qt 25 1478 918
2020-10-15 0822 332 DN 'Julip' Danville IL USA na EN60fg 1488 925
2020-10-15 0705 396 CRS Corsicana TX USA na EM12ta 25 1165 724
2020-10-15 0700 368 ZYZ Toronto (The Queensway) ON CAN na FN03fo 25 2149 1335
2020-10-15 0633 245 CB Cambridge Bay NU CAN na DP79lc 1000 3256 2023
2020-10-14 1145 385 OCC 'Ocean Cape' Yakutat AK ALS na CO09dn 3257 2024
2020-10-14 1126 359 ANI Aniak AK ALS na BP01eo 250 4359 2708
2020-10-14 1125 355 AUB 'Saldo' King Salmon AK ALS na BO18or 4162 2586
2020-10-13 0836 392 FMZ 'Beklof' Fairmont NE USA na EN10fo 25 643 399
2020-10-10 0942 254 5B Summerside PE CAN na FN86bj 250 3381 2101
2020-10-10 0940 245 PWF 'Sportys' Batavia OH USA na EM79vb 25 1787 1110
2020-10-10 0940 336 MA 'Wexford' Cadillac MI USA na EN74ff 1679 1043
2020-10-10 0940 394 RWO 'Woody Island' Kodiak AK ALS na BO37us 3885 2414
2020-10-10 0938 236 ZHT 'Forks' Winnipeg MB CAN na EN19ku 50 1277 794
2020-10-10 0938 332 SG 'Depre' Green Bay WI USA na EN54wj 25 1482 921
2020-10-10 0937 235 9H La Grande 3 QC CAN na FO13vn 250 2649 1646
2020-10-10 0936 234 TX 'Tecco' Texarkana AR USA na EM33am 25 1209 751
2020-10-10 0935 233 ALJ Johnstone Point Island AK ALS na BP60ql 1000 3650 2268
2020-10-10 0934 227 FZ 'Eaves' St. Louis MO USA na EM48rq 1253 779
2020-10-10 0933 343 ML Minami Tori Shima MTS as QL64xg 1250 9178 5703
2020-10-10 0931 203 ZKI Kitimat BC CAN na CO54pb 2375 1475
2020-10-10 0931 206 EF 'Champion' Castlegar BC CAN na DN19eg 100 1445 898
2020-10-10 0931 283 DUT 'Dutch Harbor' Unalaska AK ALS na AO63rv 1000 4763 2959
2020-10-10 0930 390 OWC 'Coffee County' Douglas GA USA na EM81mj 25 2197 1365
2020-10-10 0928 385 YNC Wemindji QC CAN na FO03oa 25 2468 1533
2020-10-10 0927 345 PUF 'Puff' Estherville IA USA na EN23pi 944 587
2020-10-10 0924 388 CDX 'Cumberland River' Somerset KY USA na EM76px 25 1795 1116
2020-10-10 0924 409 YTA Pembroke ON CAN na FN15jt 25 2353 1462
2020-10-10 0922 361 HB 'Himun' Burlington NC USA na FM05ex 2262 1406
2020-10-10 0922 397 JE 'Algoa' Jefferson City MO USA na EM38xn 1128 701
2020-10-10 0921 215 CSZ 'Crossroads' Athens TX USA na EM22ab 25 1186 737
2020-10-10 0921 280 QX Gander NL CAN na GN28px 1000 4047 2515
2020-10-10 0921 332 YFM La Grande 4 QC CAN na FO33dr 2000 2809 1745
2020-10-10 0921 359 YAZ Tofino BC CAN na CN79db 1927 1197
2020-10-10 0920 239 HKF 'Hook Field' Middletown OH USA na EM79sl 25 1759 1093
2020-10-10 0920 325 YJQ Bella Bella (Campbell Island) BC CAN na CO52we 2235 1389
2020-10-10 0920 329 PJ Robinson (Whitehorse) YT CAN na CP20nk 250 3076 1911
2020-10-10 0920 390 HBT Sand Point (Borland) AK ALS na AO95rh 4367 2713
2020-10-10 0919 278 EOE 'Enoree' Newberry SC USA na EM94eh 25 2158 1341
2020-10-10 0919 372 YCO Coppermine / Kugluktuk NU CAN na DP27kt 1000 3173 1971
2020-10-10 0918 266 SLE 'Turno' Salem OR USA na CN84mu 50 1571 976
2020-10-10 0918 296 M4 Gimli MB CAN na EO10lp 1356 842
2020-10-10 0918 316 FFC 'Pecat' Peachtree City GA USA na EM73sh 1969 1224
2020-10-10 0917 358 SIT Sitka AK ALS na CO26fu 2903 1803
2020-10-10 0915 412 CTZ Clinton NC USA na FM04tx 25 2406 1495
2020-10-10 0914 344 ES 'Pikle' Escanaba MI USA na EN65jr 25 1593 990
2020-10-10 0911 224 BK Baker Lake NU CAN na EP14xh 1000 2786 1731
2020-10-10 0830 525 ICW 'Ice Pool' Nenana AK ALS na BP54ln 25 3931 2443
2020-10-10 0736 356 MEF Medford OR USA na CN82nj 1518 943
2020-10-10 0736 359 GYG Grayling MI USA na EN74or 25 1748 1086
2020-10-10 0736 380 UMB 'Culvr' Milledgeville GA USA na EM83kd 25 2088 1297
2020-10-10 0630 315 AT 'Bruny' Dayton OH USA na EM79tu 1761 1094
2020-10-10 0436 256 YXN Whale Cove NU CAN na EP32qf 25 2628 1633
2020-10-10 0421 206 XBE Bearskin Lake ON CAN na EO43lx 25 1893 1176
2020-10-10 0313 391 OO Oshawa ON CAN na FN03nw 7 2204 1370
2020-10-10 0310 365 JN 'Balll' Muncie IN USA na EN70ie 1679 1043
2020-10-10 0253 423 PCW Port Clinton OH USA na EN81nm 25 1874 1164
2020-10-10 0253 426 IZS Montezuma GA USA na EM72xi 25 2054 1276
2020-10-10 0251 407 IL 'Airbo' Wilmington OH USA na EM89dl 25 1822 1132
2020-10-10 0249 390 BR 'Burns' Burlington IL USA na EN40kp 25 1184 735
2020-10-10 0244 373 YXK Rimouski QC CAN na FN58rl 25 3034 1885
2020-10-07 1919 400 FN 'Colln' Fort Collins / Loveland CO USA na DN70mi 25 61 38
2020-10-07 1049 340 GN 'Brindl' Lexington KY USA na EM78rc 1779 1105
2020-10-07 1046 330 MF 'Missi' Mc Allen TX USA na EL06ug 1630 1013
2020-10-07 1044 293 MB 'Mill Bay' Victoria BC CAN na CN88fq 25 1766 1097
2020-10-07 1043 281 CX 'Alibi' Conroe TX USA na EM20gk 25 1357 843
2020-10-07 1039 257 FWC 'Wayne County' Fairfield IL USA na EM58tj 25 1444 897
2020-10-07 1035 238 K5 Maple Creek SK CAN na DN59gv 1173 729
2020-10-07 1033 230 BNZ Abbeville LA USA na EL39wx 25 1604 996
2020-10-07 1032 215 ZWW 'Boine' Muddywater (Winnipeg) MB CAN na EN19it 13.5 1267 787
2020-10-07 0631 415 DJD Canton GA USA na EM74sg 25 1922 1195
2020-10-05 0830 381.5 SJX 'St James' Beaver Island MI USA na EN75fq 25 1715 1066
2020-10-05 0733 255 BS 'Creed' Austin TX USA na EM10dc 1268 788
2020-10-05 0733 365 PAL Palma EQA sa FI07cx 1000 5314 3302
2020-10-04 0855 263 ZQT 'Superior' Thunder Bay ON CAN na EN58jj 50 1579 981
2020-10-04 0848 375 SPH Springhill LA USA na EM32hw 25 1292 803
2020-10-04 0838 341 CQN 'Daisy' Chattanooga TN USA na EM75kd 50 1828 1136
2020-10-04 0837 338 HR 'Sebas' Harlingen TX USA na EL16eh 25 1651 1026
2020-10-04 0835 300 SCR San Cristobal GAL sa EI59ec 4789 2976
2020-10-04 0830 224 BH 'Mc Den' Birmingham AL USA na EM63nm 400 1760 1094
2020-10-04 0827 201 BV 'Dewie' Bartlesville OK USA na EM16xu 25 851 528
2020-10-04 0245 369 ZDX Coolidge Saint Johns ATG ca FK97cd 700 4854 3016
2020-10-04 0242 309 GPI Guapi CLM sa FJ12bn 500 4964 3084
2020-10-04 0212 410 TEST UNID XUN xx
2020-10-03 1055 406 2S High Prairie AB CAN na DO15sj 1926 1197
2020-10-03 1046 356 SJ 'Woole' San Angelo TX USA na DM91rg 1033 642
2020-10-03 1043 338 TU 'Oillr' Tulsa OK USA na EM26bc 903 561
2020-10-03 1033 254 SM Fort Smith AB CAN na DO49bx 400 2292 1424
2020-10-03 1032 251 JZY Macomb IL USA na EN40rm 25 1233 766
2020-10-03 1031 240 CJ 'Calde' Springfield IL USA na EM59et 1315 817
2020-10-03 1028 212 VP 'Sedly' Valparaiso IN USA na EN61nk 1541 957
2020-10-03 0706 334 YER Fort Severn ON CAN na EO65ex 195 2204 1369
2020-10-03 0706 344 IWJ 'Early County' Blakely GA USA na EM71ok 25 2047 1272
2020-10-03 0705 323 TAB Crown Point TRD ca FK91nd 5377 3341
2020-10-03 0705 323 OUK Calhoun GA USA na EM74mj 24 1875 1165
2020-10-03 0702 227 TNZ 'Lawrence Co.' Walnut Ridge AR USA na EM46me 25 1296 805
2020-10-03 0224 404 HU 'Saltt' Hutchinson KS USA na EM18ac 25 641 398
2020-10-02 1145 410 WXYZ Unknown XUS xx
2020-10-02 1051 393 BR 'Depoo' Brownsville TX USA na EL15fx 1688 1049
2020-10-02 1040 332 POA Pahoa HI HWA oc BK29mn 400 5239 3255
2020-10-02 1037 298 3N Weyburn SK CAN na DN89cq 1102 685
2020-10-02 1030 363 RNB 'Rainbow' Millville NJ USA na FM29kk 50 2550 1585
2020-10-02 0539 385 DXB De Ridder LA USA na EM30hs 1457 906
2020-10-01 0910 391 PLX 'Palestine' Robinson IL USA na EM69ea 25 1496 930
2020-09-26 1213 264 SZT 'Sandpoe' Sandpoint ID USA na DN18rg 100 1312 815
2020-09-26 1213 269 YK 'Brilliant' Castlegar BC CAN na DN19eh 1448 900
2020-09-26 1135 260 ST 'Tario' Saint Joseph MO USA na EM29nq 25 869 540
2020-09-26 1132 263 CVM 'Civic Memorial' Alton IL USA na EM48xv 1292 803
2020-09-26 1131 263 3Z Russell MB CAN na DO90is 1253 778
2020-09-26 1121 266 VR Vancouver BC CAN na CN89le 50 1760 1094
2020-09-26 1113 260 CL 'Rowdy' College Station TX USA na EM10tl 1301 809
2020-09-26 0416 269 BEX Bloomfield IA USA na EN30sr 25 1071 666
2020-09-26 0408 266 XD Edmonton AB CAN na DO33fp 1666 1035
2020-09-26 0407 263 ZQT 'Superior' Thunder Bay ON CAN na EN58jj 50 1579 981
2020-09-25 2352 267 HET Henryetta OK USA na EM15xj 25 932 579
2020-09-25 1814 266 PYX Perryton TX USA na DM96pj 25 537 333
2020-09-25 1814 269 UDE Delta MB CAN na EO00ud 50 1264 785
2020-09-25 1131 344 JL 'Lunns' Joplin MO USA na EM27re 958 595
2020-09-21 0310 206 QI Yarmouth NS CAN na FN63wt 500 3225 2004
2020-09-21 0259 385 LN 'Potts' Lincoln NE USA na EN10or 45 707 439
2020-09-20 0940 302 HO 'Beady' Huron SD USA na EN04tk 25 752 467
2020-09-20 0939 295 8C Fairview AB CAN na DO06sb 2056 1278
2020-09-20 0938 284 BT 'Rundi' Baton Rouge LA USA na EM40jn 1621 1007
2020-09-20 0934 263 DYQ 'Dulaney' Greenville TN USA na EM86nd 25 1979 1230
2020-09-20 0933 253 OC 'Nados' Nacogdoches TX USA na EM21pl 25 1313 816
2020-09-20 0931 221 RP 'Wickr' Rice Lake Airport, Carl's Field WI USA na EN45ch 1243 772
2020-09-20 0717 407 ZHU Hauts-Bois / St Hubert (Montreal) QC CAN na FN35hn 95 2647 1645
2020-09-20 0716 400 ROB 'Robinson' Waco TX USA na EM11lm 1170 727
2020-09-20 0711 375 LF 'Laffs' Lafayette LA USA na EM40bg 1597 992
2020-09-20 0709 375 7B St Thomas ON CAN na EN92ks 25 2018 1254
2020-09-20 0708 375 BM Balmoral MB CAN na EO10id 25 1299 807
2020-09-20 0659 341 EI 'Garfy' Enid OK USA na EM16cg 747 464
2020-09-20 0657 338 ZEM Eastmain QC CAN na FO02rf 25 2446 1520
2020-09-20 0654 331 JV 'Catch' Jeffersonville IN USA na EM78dl 1670 1038
2020-09-20 0651 312 UNT Naramata (Penticton) BC CAN na DN09eo 1580 982
2020-09-20 0641 264 SZT 'Sandpoe' Sandpoint ID USA na DN18rg 100 1312 815
2020-09-20 0634 220 RBJ 'Robles' Tucson AZ USA na DM42hb 10 1032 641
2020-09-20 0632 209 MT 'Chiboo' Chibougamau (Chapais) QC CAN na FN29st 500 2632 1635
2020-09-19 1017 338 TT 'Stutt' Stuttgart AR USA na EM44fm 25 1331 827
2020-09-19 1016 335 YUT Repulse Bay NU CAN na EP66vm 3194 1984
2020-09-19 1012 203 AB 'Reney' Aberdeen SD USA na EN05uj 25 830 516
2020-09-19 1004 382 IRS Sturgis MI USA na EN71gt 25 1659 1031
2020-09-19 1000 361 HI Holman NT CAN na DQ10cs 3518 2186
2020-09-19 0958 353 LLD Lanai HI HWA oc BL10ms 2000 5328 3311
2020-09-19 0952 347 YK 'Cagur' Yankton NE USA na EN12iu 730 453
2020-09-19 0947 335 ZKF Kitchener (Wellington) ON CAN na EN93ul 15 2088 1297
2020-09-19 0633 223 YKA Kamloops BC CAN na CO90tq 500 1697 1054
2020-09-19 0632 200 YDL Dease Lake BC CAN na CO58ak 2720 1690
2020-09-18 0932 287 YSF Stony Rapids SK CAN na DO79bg 2164 1345
2020-09-17 0730 365 HQG Hugoton KS USA na DM97hd 25 436 271
2020-09-17 0727 350 CP 'Acore' Cahokia / St Louis IL USA na EM48xm 25 1299 807
2020-09-17 0721 342 ST 'Hussk' St Cloud MN USA na EN35al 25 1102 685
2020-09-17 0718 329 X2 Athabasca AB CAN na DO34jr 1766 1097
2020-09-17 0716 309 GPI Guapi CLM sa FJ12bn 500 4964 3084
2020-09-17 0531 289 YLQ La Tuque QC CAN na FN37oj 500 2707 1682
2020-09-17 0530 283 SCO Scobey MT USA na DN78gt 1001 622
2020-09-16 0633 282 ROS Rush City MN USA na EN35mq 25 1181 734
2020-09-13 0732 248 UL Montreal QC CAN na FN35bl 1000 2608 1620
2020-09-12 1031 353 LLD Lanai HI HWA oc BL10ms 2000 5328 3311
2020-09-12 1030 355 AUB 'Saldo' King Salmon AK ALS na BO18or 4162 2586
2020-09-12 1026 299 HW 'Cubla' Wilmington OH USA na EM89bi 1810 1125
2020-09-12 1025 292 ZET Devon (Edmonton Intl Apt) AB CAN na DO33di 25 1642 1020
2020-09-12 0853 382 YE Fort Nelson BC CAN na CO88pt 100 2453 1524
2020-09-12 0831 212 UC 'Obion' Union City TN USA na EM56mh 25 1458 906
2020-09-10 0639 378 UX Hall Beach NU CAN na EP98is 400 3517 2185
2020-09-10 0638 356 AY St Anthony NL CAN na GO11wj 25 3934 2444
2020-09-10 0637 375 FS Fort Simpson NT CAN na CP91is 280 2678 1664
2020-09-10 0635 272 IK Kankakee IL USA na EN61ba 1457 905
2020-09-10 0635 362 YZS Coral Harbour NU CAN na EP84id 500 3053 1897
2020-09-10 0625 391 4W Kelsey MB CAN na EO16ra 25 1907 1185
2020-09-04 0651 369 ZDX Coolidge Saint Johns ATG ca FK97cd 700 4854 3016
2020-09-04 0649 360 PN Port-Menier / Ile Anticosti QC CAN na FN79tu 500 3347 2080
2020-09-04 0647 351 YKQ Waskaganish QC CAN na FO01pl 500 2403 1493
2020-09-04 0645 340 YY Mont Joli QC CAN na FN58un 500 3053 1897
2020-09-04 0643 394 MKL 'Mersy' Jackson TN USA na EM55mm 25 1491 927
2020-09-04 0642 391 EFW Jefferson IA USA na EN22ta 25 928 577
2020-09-04 0641 329 AAA 'Abraham' Lincoln IL USA na EN50hd 25 1334 829
2020-09-04 0641 374 EX Rutland (Kelowna) BC CAN na DN09hw 1589 987
2020-09-04 0638 266 VR Vancouver BC CAN na CN89le 50 1760 1094
2020-09-04 0630 214 LU 'Cultus' Abbotsford BC CAN na CN89xa 400 1688 1049
2020-09-03 1030 245 FS 'Rokky' Sioux Falls SD USA na EN13ol 100 797 495
2020-09-03 0815 215 ZAB 'Leduc' Edmonton (Intl Apt) AB CAN na DO33gf 25 1622 1008
2020-09-03 0721 426 UV 'Tunng' Oxford MS USA na EM54ej 25 1491 926
2020-09-03 0720 419 RYS 'Grosse Ile' Detroit / Grosse Ile MI USA na EN82kc 25 1853 1151
2020-09-03 0718 410 BA 'Clifs' Columbus IN USA na EM79ch 25 1648 1024
2020-09-03 0715 392 ML Charlevoix QC CAN na FN47uo 500 2897 1800
2020-09-03 0714 389 EN 'Codee' Kenosha WI USA na EN52xn 1452 902
2020-09-03 0712 387 CAV Clarion IA USA na EN32cr 25 994 617
2020-09-03 0708 379 BRA 'Broad River' Asheville NC USA na EM85sg 100 2048 1272
2020-09-03 0706 378 RJ Roberval QC CAN na FN38un 500 2761 1715
2020-09-03 0704 371 FQW 'Walter Hill' Murfreesboro TN USA na EM65tx 25 1689 1049
2020-09-03 0704 371 AZ 'Austn' Vicksburg MI USA na EN72fd 1653 1027
2020-09-03 0659 350 RB Resolute Bay NU CAN na EQ24mr 3000 3916 2433
2020-09-03 0658 348 MC 'Surff' Mason City IA USA na EN33ib 25 1043 648
2020-09-03 0656 341 FO 'Barro' Fort Dodge IA USA na EN22um 25 948 589
2020-09-03 0652 329 BQP Bastrop LA USA na EM42bs 25 1414 878
2020-09-03 0650 276 YEL Elliot Lake ON CAN na EN86qi 250 1952 1213
2020-09-03 0649 236 YZA Ashcroft BC CAN na CO90iq 500 1748 1086
2020-09-03 0647 219 ZRS 'Ajax' Regina SK CAN na DO70pl 1186 737
2020-09-03 0646 204 ZQR 'Findlay' Regina SK CAN na DO70rk 20 1182 734
2020-09-02 1131 332 POA Pahoa HI HWA oc BK29mn 400 5239 3255
2020-09-02 1130 353 LLD Lanai HI HWA oc BL10ms 2000 5328 3311
2020-08-30 1133 298 3N Weyburn SK CAN na DN89cq 1102 685
2020-08-30 1130 296 LGD La Grande OR USA na DN15ai 25 1222 759
2020-08-30 1102 287 ZWG 'Stoney' Medicine Rock (Winnipeg) MB CAN na EN19jx 17 1286 799
2020-08-30 1100 272 LD 'Lubbi' Lubbock TX USA na DM93dp 25 747 464
2020-08-30 1041 308 ZZD Calmar (Edmonton Intl Apt) AB CAN na DO33eg 1631 1013
2020-08-30 1025 274 YPM Pikangikum ON CAN na EO31at 25 1583 983
2020-08-30 0837 305 OI 'Tommi' South Sioux City NE USA na EN12sl 25 777 483
2020-08-30 0831 275 AV St Andrews (Winnipeg) MB CAN na EO10lb 80 1300 808
2020-08-30 0830 274 RG Red Wing MN USA na EN34qo 25 1151 715
2020-08-30 0830 278 ADG Adrian MI USA na EN71xu 50 1777 1104
2020-08-30 0432 278 NM Matagami QC CAN na FN19dr 400 2404 1494
2020-08-29 1339 275 HIN 'Whitney' Chadron NE USA na DN82kt 25 370 230
2020-08-29 1339 275 GUY Guymon OK USA na DM96fq 25 463 287
2020-08-29 1111 281 DMO Sedalia MO USA na EM38jq 25 1026 637
2020-08-29 0948 317 VC La Ronge SK CAN na DO75ic 500 1700 1056
2020-08-29 0947 300 YIV Island Lake MB CAN na EO23qu 500 1746 1085
2020-08-29 0947 305 RO 'Topan' Roswell NM USA na DM73si 400 720 447
2020-08-29 0946 290 YYF Penticton BC CAN na DN09el 500 1571 976
2020-08-29 0946 290 QR Regina SK CAN na DO70ri 100 1173 729
2020-08-29 0931 278 CEP 'Capitan' Ruidoso NM USA na DM73hl 25 705 438
2020-08-29 0930 275 GEY Greybull WY USA na DN54xm 50 579 360
2020-08-29 0837 311 9Y Pincher Creek AB CAN na DN39am 50 1287 800
2020-08-29 0836 293 FBY Fairbury NE USA na EN10ke 50 675 420
2020-08-29 0831 302 QW North Battleford SK CAN na DO52tt 40 1467 912
2020-08-29 0830 299 TV Turner Valley AB CAN na DO20ts 200 1418 881
2020-08-29 0119 293 TOR Torrington WY USA na DN72wb 25 262 163
2020-08-29 0118 280 GYZ 'Camp Guernsey' Guernsey WY USA na DN72pf 50 270 168
2020-08-27 0831 368 VIQ Neillsville WI USA na EN44rn 25 1304 810
2020-08-27 0631 242 EL 'Valtr' El Paso TX USA na DM61uu 400 892 554
2020-08-26 0930 263 3Z Russell MB CAN na DO90is 1253 778
2020-08-26 0927 388 OK 'Preso' Preston (Okmulgee) OK USA na EM25as 25 915 569
2020-08-26 0926 223 YYW Armstrong ON CAN na EO50lh 100 1708 1061
2020-08-26 0925 219 YMG Manitouwadge ON CAN na EN79bb 100 1828 1136
2020-08-26 0924 368 ROQ Ruston LA USA na EM32qo 25 1370 851
2020-08-26 0922 347 GC 'Pieve' Garden City KS USA na DM97pt 25 436 271
2020-08-26 0921 393 BZ 'Fossi' Clinton OK USA na EM05jk 25 707 439
2020-08-26 0920 389 YWB Kelowna BC CAN na DN09et 1594 991
2020-08-26 0920 391 DDP San Juan / Dorado / Luiz Munoz Marin Intl PR PTR ca FK68tl 2000 4390 2728
2020-08-26 0919 344 TKH 'Tallulah' Vicksburg LA USA na EM42lf 1512 940
2020-08-26 0916 314 VTN Valentine NE USA na DN92ru 25 505 314
2020-08-24 0834 275 HIN 'Whitney' Chadron NE USA na DN82kt 25 370 230
2020-08-24 0834 280 GYZ 'Camp Guernsey' Guernsey WY USA na DN72pf 50 270 168
2020-08-24 0833 275 GUY Guymon OK USA na DM96fq 25 463 287
2020-08-24 0833 275 GEY Greybull WY USA na DN54xm 50 579 360
2020-08-24 0832 266 PYX Perryton TX USA na DM96pj 25 537 333
2020-08-24 0832 267 HET Henryetta OK USA na EM15xj 25 932 579
2020-08-24 0831 257 JYR York NE USA na EN10ev 25 640 397
2020-08-23 1025 414 SU 'Salix' Sioux City IA USA na EN12uh 40 784 487
2020-08-23 1024 407 PLT 'Platte Center' Columbus NE USA na EN11hl 50 673 418
2020-08-23 1024 407 CHD Chandler AZ USA na DM43cg 25 944 587
2020-08-23 1023 405 2K Camrose AB CAN na DO33oa 1582 983
2020-08-23 1022 400 1L Fort MacKay / Firebag AB CAN na DO47mg 1987 1235
2020-08-23 1020 386 SYF St. Francis KS USA na DM99cr 25 278 173
2020-08-23 1020 389 TW 'Strik' Twin Falls ID USA na DN22tl 835 519
2020-08-23 1019 385 UWL New Castle IN USA na EM79iv 25 1682 1045
2020-08-23 1018 383 CNP Chappell NE USA na DN81sb 25 259 161
2020-08-23 1017 385 HO 'Hossy' Hot Springs AR USA na EM34jk 50 1206 749
2020-08-23 1015 376 LC 'Pickl' Columbus OH USA na EM89nv 25 1887 1173
2020-08-23 1014 372 ZPA Glass (Prince Albert) SK CAN na DO73ff 25 1492 927
2020-08-23 1013 368 AN 'Alamo' San Antonio TX USA na EL09ro 400 1280 795
2020-08-23 1012 365 DPY Deer Park WA USA na DN17gx 50 1344 835
2020-08-23 1010 362 CD 'Dawes' Chadron NE USA na DN82js 363 225
2020-08-23 1009 359 GGF Grant NE USA na DN90du 305 190
2020-08-23 1006 347 4Q Brochet MB CAN na DO97dv 2024 1258
2020-08-23 1003 345 GF 'Hiser' Grand Forks ND USA na EN17ju 1091 678
2020-08-23 1002 344 UNU Juneau WI USA na EN53pk 1413 878
2020-08-23 1001 344 JA 'Dinns' Jacksonville FL USA na EM90cl 400 2345 1457
2020-08-23 0959 335 BV 'Almnd' Batesville AR USA na EM45cq 25 1250 777
2020-08-23 0957 336 LF La Salle MB CAN na EN19ip 50 1251 777
2020-08-23 0955 334 LH 'Egrow' Bloomington IL USA na EN50nn 1374 854
2020-08-23 0954 332 FIS 'Fish Hook' Key West FL USA na EL94cn 400 2753 1710
2020-08-23 0953 329 YEK Arviat NU CAN na EP21xc 500 2484 1543
2020-08-23 0950 326 PKZ 'Pickens' Pensacola FL USA na EM60jk 400 1922 1194
2020-08-23 0948 308 ZZD Calmar (Edmonton Intl Apt) AB CAN na DO33eg 1631 1013
2020-08-23 0947 428 POH Pocahontas IA USA na EN22qr 25 928 577
2020-08-23 0946 418 CW 'Mossy' Lake Charles LA USA na EM30jh 25 1506 936
2020-08-23 0945 293 TOR Torrington WY USA na DN72wb 25 262 163
2020-08-23 0944 274 RG Red Wing MN USA na EN34qo 25 1151 715
2020-08-23 0944 293 FBY Fairbury NE USA na EN10ke 50 675 420
2020-08-23 0943 272 OLY 'Olney' Olney-Noble IL USA na EM58vr 25 1452 902
2020-08-23 0943 281 DMO Sedalia MO USA na EM38jq 25 1026 637
2020-08-23 0943 284 RT Rankin Inlet NU CAN na EP32wt 1000 2698 1676
2020-08-23 0942 278 ADG Adrian MI USA na EN71xu 50 1777 1104
2020-08-23 0940 254 ZYC Calgary AB CAN na DO21xe 25 1444 897
2020-08-23 0940 255 SW 'Blaki' Stillwater OK USA na EM16kf 50 799 497
2020-08-23 0940 273 FK 'Airbe' Fort Campbell (Hopkinsville) KY USA na EM66hr 25 1577 980
2020-08-23 0939 253 GB 'Garno' Marshall MN USA na EN24bm 25 918 570
2020-08-23 0938 245 YZE Gore Bay ON CAN na EN85qw 400 1941 1206
2020-08-23 0937 233 AZN 'Amazon' St. Joseph MO USA na EM29nv 25 867 539
2020-08-23 0936 233 QN Nakina ON CAN na EO60qe 400 1842 1145
2020-08-23 0936 233 BR Brandon MB CAN na DN99xv 25 1187 738
2020-08-23 0935 233 ALJ Johnstone Point Island AK ALS na BP60ql 1000 3650 2268
2020-08-23 0933 224 DN Dauphin MB CAN na DO91xc 25 1314 816
2020-08-23 0932 220 HLE Hailey ID USA na DN23vh 50 855 531
2020-08-23 0931 200 YAQ Kasabonika ON CAN na EO53qm 50 1963 1220
2020-08-22 0949 402 CV Carlz Carlsbad NM USA na DM72tg 841 522
2020-08-22 0948 414 GRN Gordon NE USA na DN82vt 409 254
2020-08-22 0948 414 GL 'Shugr' Goodland KS USA na DM99eh 25 298 185
2020-08-22 0947 392 AGZ Wagner SD USA na EN03ub 25 668 415
2020-08-22 0947 395 ULS Ulysses KS USA na DM97ho 402 250
2020-08-22 0947 413 YHD Dryden ON CAN na EN39nu 250 1468 912
2020-08-22 0946 407 CO 'Petey' Colorado Springs CO USA na DM78pq 25 128 80
2020-08-22 0946 408 JDM 'Wheatfield' Colby KS USA na DM99lm 25 344 214
2020-08-22 0944 371 GW Jarpik Kuujjuarapik QC CAN na FO15cg 500 2641 1641
2020-08-22 0944 375 DS Searcy AR USA na EM45cc 25 1279 795
2020-08-22 0941 362 SB Sudbury ON CAN na EN96mp 400 2083 1294
2020-08-22 0940 359 SDR Snyder TX USA na DM92mq 25 872 542
2020-08-22 0938 350 RG 'Gally' Oklahoma City OK USA na EM15eh 400 823 511
2020-08-22 0938 353 LI 'Lasky' Little Rock AR USA na EM34uq 400 1262 784
2020-08-22 0937 338 YPX Puvirnituq QC CAN na FP10ib 500 2958 1838
2020-08-22 0936 338 RYN 'Ryan' Tucson AZ USA na DM42kd 400 1012 629
2020-08-22 0932 263 CVM 'Civic Memorial' Alton IL USA na EM48xv 1292 803
2020-08-22 0931 258 ZSJ Sandy Lake ON CAN na EO33hb 500 1718 1068
2020-08-22 0930 250 FO Flin Flon MB CAN na DO94dq 1600 1672 1039
2020-08-22 0831 212 YGX Gillam MB CAN na EO26pi 1988 1235
2020-08-21 1020 521 TO 'Biloy' Topeka KS USA na EM29dc 25 805 500
2020-08-21 1019 420 PK Olathe KS USA na EM28ps 25 896 557
2020-08-21 1018 417 IY 'Chukk' Charles City IA USA na EN33pd 25 1091 678
2020-08-21 1018 420 FQ 'Montz' Fairmont MN USA na EN23tp 25 981 610
2020-08-21 1017 416 LB 'Panbe' North Platte NE USA na DN91rb 50 405 252
2020-08-21 1017 419 GB 'Babsy' Great Bend KS USA na EM08ng 25 559 348
2020-08-21 1013 412 CMY 'Mc Coy' Sparta WI USA na EN43qw 10 1276 793
2020-08-21 1012 405